sensor_id;sensor_type;location;lat;lon;timestamp;P1;durP1;ratioP1;P2;durP2;ratioP2
73321;SDS011;61549;37.044;22.128;2023-01-28T00:01:30;3.15;;;1.20;;
73321;SDS011;61549;37.044;22.128;2023-01-28T00:03:56;4.68;;;1.65;;
73321;SDS011;61549;37.044;22.128;2023-01-28T00:06:22;3.38;;;1.30;;
73321;SDS011;61549;37.044;22.128;2023-01-28T00:08:51;2.80;;;1.50;;
73321;SDS011;61549;37.044;22.128;2023-01-28T00:11:18;3.65;;;1.00;;
73321;SDS011;61549;37.044;22.128;2023-01-28T00:13:49;1.08;;;0.90;;
73321;SDS011;61549;37.044;22.128;2023-01-28T00:16:16;3.47;;;1.00;;
73321;SDS011;61549;37.044;22.128;2023-01-28T00:18:43;1.30;;;0.60;;
73321;SDS011;61549;37.044;22.128;2023-01-28T00:21:11;2.47;;;0.88;;
73321;SDS011;61549;37.044;22.128;2023-01-28T00:23:38;2.38;;;1.20;;
73321;SDS011;61549;37.044;22.128;2023-01-28T00:26:11;2.88;;;1.38;;
73321;SDS011;61549;37.044;22.128;2023-01-28T00:28:38;2.33;;;1.30;;
73321;SDS011;61549;37.044;22.128;2023-01-28T00:31:06;2.28;;;1.40;;
73321;SDS011;61549;37.044;22.128;2023-01-28T00:33:34;4.43;;;3.13;;
73321;SDS011;61549;37.044;22.128;2023-01-28T00:36:06;4.05;;;2.20;;
73321;SDS011;61549;37.044;22.128;2023-01-28T00:38:35;3.50;;;2.20;;
73321;SDS011;61549;37.044;22.128;2023-01-28T00:41:14;5.53;;;1.80;;
73321;SDS011;61549;37.044;22.128;2023-01-28T00:43:41;2.72;;;1.30;;
73321;SDS011;61549;37.044;22.128;2023-01-28T00:46:09;1.95;;;1.30;;
73321;SDS011;61549;37.044;22.128;2023-01-28T00:48:38;1.45;;;1.15;;
73321;SDS011;61549;37.044;22.128;2023-01-28T00:51:07;3.75;;;1.25;;
73321;SDS011;61549;37.044;22.128;2023-01-28T00:53:35;2.00;;;1.55;;
73321;SDS011;61549;37.044;22.128;2023-01-28T00:56:03;1.77;;;1.40;;
73321;SDS011;61549;37.044;22.128;2023-01-28T00:58:30;1.90;;;1.42;;
73321;SDS011;61549;37.044;22.128;2023-01-28T01:01:08;1.70;;;1.48;;
73321;SDS011;61549;37.044;22.128;2023-01-28T01:03:36;2.97;;;1.50;;
73321;SDS011;61549;37.044;22.128;2023-01-28T01:06:02;1.83;;;1.25;;
73321;SDS011;61549;37.044;22.128;2023-01-28T01:08:28;1.17;;;0.98;;
73321;SDS011;61549;37.044;22.128;2023-01-28T01:11:06;2.30;;;0.90;;
73321;SDS011;61549;37.044;22.128;2023-01-28T01:13:33;1.58;;;0.80;;
73321;SDS011;61549;37.044;22.128;2023-01-28T01:18:36;1.50;;;1.00;;
73321;SDS011;61549;37.044;22.128;2023-01-28T01:21:15;0.98;;;0.70;;
73321;SDS011;61549;37.044;22.128;2023-01-28T01:23:43;1.05;;;0.82;;
73321;SDS011;61549;37.044;22.128;2023-01-28T01:26:10;1.40;;;0.80;;
73321;SDS011;61549;37.044;22.128;2023-01-28T01:28:35;2.45;;;1.10;;
73321;SDS011;61549;37.044;22.128;2023-01-28T01:31:07;2.10;;;1.48;;
73321;SDS011;61549;37.044;22.128;2023-01-28T01:33:36;3.17;;;2.20;;
73321;SDS011;61549;37.044;22.128;2023-01-28T01:36:03;2.42;;;1.70;;
73321;SDS011;61549;37.044;22.128;2023-01-28T01:38:30;2.30;;;1.63;;
73321;SDS011;61549;37.044;22.128;2023-01-28T01:40:56;1.60;;;1.20;;
73321;SDS011;61549;37.044;22.128;2023-01-28T01:43:24;2.05;;;1.20;;
73321;SDS011;61549;37.044;22.128;2023-01-28T01:45:54;2.45;;;1.38;;
73321;SDS011;61549;37.044;22.128;2023-01-28T01:48:27;3.47;;;1.20;;
73321;SDS011;61549;37.044;22.128;2023-01-28T01:50:58;2.35;;;1.23;;
73321;SDS011;61549;37.044;22.128;2023-01-28T01:53:27;2.20;;;1.27;;
73321;SDS011;61549;37.044;22.128;2023-01-28T01:55:55;1.10;;;1.00;;
73321;SDS011;61549;37.044;22.128;2023-01-28T01:58:25;1.77;;;1.25;;
73321;SDS011;61549;37.044;22.128;2023-01-28T02:00:54;3.17;;;1.30;;
73321;SDS011;61549;37.044;22.128;2023-01-28T02:03:24;1.77;;;1.00;;
73321;SDS011;61549;37.044;22.128;2023-01-28T02:05:55;2.58;;;1.10;;
73321;SDS011;61549;37.044;22.128;2023-01-28T02:08:21;1.88;;;0.90;;
73321;SDS011;61549;37.044;22.128;2023-01-28T02:13:27;0.60;;;0.60;;
73321;SDS011;61549;37.044;22.128;2023-01-28T02:15:58;1.45;;;0.60;;
73321;SDS011;61549;37.044;22.128;2023-01-28T02:18:25;3.90;;;0.68;;
73321;SDS011;61549;37.044;22.128;2023-01-28T02:20:59;1.83;;;0.50;;
73321;SDS011;61549;37.044;22.128;2023-01-28T02:26:55;0.50;;;0.40;;
73321;SDS011;61549;37.044;22.128;2023-01-28T02:35:00;1.13;;;0.60;;
73321;SDS011;61549;37.044;22.128;2023-01-28T02:37:39;1.27;;;0.70;;
73321;SDS011;61549;37.044;22.128;2023-01-28T02:40:31;1.55;;;0.80;;
73321;SDS011;61549;37.044;22.128;2023-01-28T02:49:06;0.85;;;0.40;;
73321;SDS011;61549;37.044;22.128;2023-01-28T02:51:58;0.50;;;0.40;;
73321;SDS011;61549;37.044;22.128;2023-01-28T02:55:09;2.22;;;0.65;;
73321;SDS011;61549;37.044;22.128;2023-01-28T03:00:31;1.05;;;0.60;;
73321;SDS011;61549;37.044;22.128;2023-01-28T03:03:04;1.13;;;0.53;;
73321;SDS011;61549;37.044;22.128;2023-01-28T03:05:51;0.98;;;0.70;;
73321;SDS011;61549;37.044;22.128;2023-01-28T03:08:44;0.47;;;0.47;;
73321;SDS011;61549;37.044;22.128;2023-01-28T03:11:31;0.70;;;0.45;;
73321;SDS011;61549;37.044;22.128;2023-01-28T03:14:18;1.30;;;0.50;;
73321;SDS011;61549;37.044;22.128;2023-01-28T03:17:04;1.67;;;0.60;;
73321;SDS011;61549;37.044;22.128;2023-01-28T03:19:55;0.90;;;0.65;;
73321;SDS011;61549;37.044;22.128;2023-01-28T03:22:39;2.75;;;0.55;;
73321;SDS011;61549;37.044;22.128;2023-01-28T03:25:28;0.80;;;0.60;;
73321;SDS011;61549;37.044;22.128;2023-01-28T03:28:15;1.70;;;0.60;;
73321;SDS011;61549;37.044;22.128;2023-01-28T03:31:03;0.90;;;0.60;;
73321;SDS011;61549;37.044;22.128;2023-01-28T03:33:51;0.85;;;0.50;;
73321;SDS011;61549;37.044;22.128;2023-01-28T03:39:16;0.85;;;0.60;;
73321;SDS011;61549;37.044;22.128;2023-01-28T03:41:57;0.43;;;0.43;;
73321;SDS011;61549;37.044;22.128;2023-01-28T03:44:29;1.13;;;0.80;;
73321;SDS011;61549;37.044;22.128;2023-01-28T03:47:13;0.60;;;0.60;;
73321;SDS011;61549;37.044;22.128;2023-01-28T03:49:43;1.20;;;0.50;;
73321;SDS011;61549;37.044;22.128;2023-01-28T03:52:19;1.88;;;0.80;;
73321;SDS011;61549;37.044;22.128;2023-01-28T03:54:47;1.80;;;1.05;;
73321;SDS011;61549;37.044;22.128;2023-01-28T03:57:19;2.10;;;1.08;;
73321;SDS011;61549;37.044;22.128;2023-01-28T03:59:46;1.30;;;0.80;;
73321;SDS011;61549;37.044;22.128;2023-01-28T04:02:14;1.70;;;0.90;;
73321;SDS011;61549;37.044;22.128;2023-01-28T04:04:41;1.10;;;0.98;;
73321;SDS011;61549;37.044;22.128;2023-01-28T04:07:07;1.10;;;0.90;;
73321;SDS011;61549;37.044;22.128;2023-01-28T04:09:37;2.92;;;1.00;;
73321;SDS011;61549;37.044;22.128;2023-01-28T04:12:05;2.13;;;0.65;;
73321;SDS011;61549;37.044;22.128;2023-01-28T04:14:31;0.70;;;0.70;;
73321;SDS011;61549;37.044;22.128;2023-01-28T04:16:57;0.70;;;0.60;;
73321;SDS011;61549;37.044;22.128;2023-01-28T04:19:23;4.13;;;0.63;;
73321;SDS011;61549;37.044;22.128;2023-01-28T04:21:49;0.52;;;0.52;;
73321;SDS011;61549;37.044;22.128;2023-01-28T04:24:18;1.48;;;0.60;;
73321;SDS011;61549;37.044;22.128;2023-01-28T04:26:44;2.13;;;0.55;;
73321;SDS011;61549;37.044;22.128;2023-01-28T04:29:10;1.73;;;0.50;;
73321;SDS011;61549;37.044;22.128;2023-01-28T04:31:35;0.50;;;0.50;;
73321;SDS011;61549;37.044;22.128;2023-01-28T04:34:01;1.58;;;0.32;;
73321;SDS011;61549;37.044;22.128;2023-01-28T04:36:27;0.60;;;0.50;;
73321;SDS011;61549;37.044;22.128;2023-01-28T04:41:23;1.38;;;0.70;;
73321;SDS011;61549;37.044;22.128;2023-01-28T04:43:48;1.20;;;0.70;;
73321;SDS011;61549;37.044;22.128;2023-01-28T04:46:15;0.80;;;0.80;;
73321;SDS011;61549;37.044;22.128;2023-01-28T04:48:40;1.48;;;0.70;;
73321;SDS011;61549;37.044;22.128;2023-01-28T04:51:07;1.27;;;0.80;;
73321;SDS011;61549;37.044;22.128;2023-01-28T04:53:33;2.38;;;0.80;;
73321;SDS011;61549;37.044;22.128;2023-01-28T04:56:05;1.00;;;0.90;;
73321;SDS011;61549;37.044;22.128;2023-01-28T04:58:31;1.80;;;0.80;;
73321;SDS011;61549;37.044;22.128;2023-01-28T05:00:57;3.72;;;0.80;;
73321;SDS011;61549;37.044;22.128;2023-01-28T05:03:23;1.67;;;0.88;;
73321;SDS011;61549;37.044;22.128;2023-01-28T05:05:50;1.38;;;0.98;;
73321;SDS011;61549;37.044;22.128;2023-01-28T05:08:16;1.48;;;0.90;;
73321;SDS011;61549;37.044;22.128;2023-01-28T05:10:42;2.55;;;0.73;;
73321;SDS011;61549;37.044;22.128;2023-01-28T05:13:08;1.52;;;0.70;;
73321;SDS011;61549;37.044;22.128;2023-01-28T05:15:34;0.70;;;0.70;;
73321;SDS011;61549;37.044;22.128;2023-01-28T05:18:00;1.05;;;0.65;;
73321;SDS011;61549;37.044;22.128;2023-01-28T05:20:26;1.42;;;0.70;;
73321;SDS011;61549;37.044;22.128;2023-01-28T05:22:52;0.98;;;0.70;;
73321;SDS011;61549;37.044;22.128;2023-01-28T05:25:18;0.98;;;0.80;;
73321;SDS011;61549;37.044;22.128;2023-01-28T05:27:51;0.70;;;0.70;;
73321;SDS011;61549;37.044;22.128;2023-01-28T05:30:17;3.15;;;0.77;;
73321;SDS011;61549;37.044;22.128;2023-01-28T05:32:44;0.80;;;0.80;;
73321;SDS011;61549;37.044;22.128;2023-01-28T05:35:10;2.47;;;0.80;;
73321;SDS011;61549;37.044;22.128;2023-01-28T05:37:37;1.05;;;0.80;;
73321;SDS011;61549;37.044;22.128;2023-01-28T05:40:03;2.92;;;0.80;;
73321;SDS011;61549;37.044;22.128;2023-01-28T05:42:29;1.42;;;0.93;;
73321;SDS011;61549;37.044;22.128;2023-01-28T05:44:55;1.58;;;1.10;;
73321;SDS011;61549;37.044;22.128;2023-01-28T05:47:22;2.25;;;1.73;;
73321;SDS011;61549;37.044;22.128;2023-01-28T05:49:48;2.45;;;1.90;;
73321;SDS011;61549;37.044;22.128;2023-01-28T05:52:14;1.75;;;1.50;;
73321;SDS011;61549;37.044;22.128;2023-01-28T05:54:39;1.77;;;1.40;;
73321;SDS011;61549;37.044;22.128;2023-01-28T05:57:05;2.15;;;1.70;;
73321;SDS011;61549;37.044;22.128;2023-01-28T05:59:31;2.30;;;1.55;;
73321;SDS011;61549;37.044;22.128;2023-01-28T06:01:57;2.03;;;1.70;;
73321;SDS011;61549;37.044;22.128;2023-01-28T06:04:23;2.33;;;1.70;;
73321;SDS011;61549;37.044;22.128;2023-01-28T06:06:48;2.38;;;1.88;;
73321;SDS011;61549;37.044;22.128;2023-01-28T06:09:16;2.22;;;1.90;;
73321;SDS011;61549;37.044;22.128;2023-01-28T06:11:42;3.47;;;2.28;;
73321;SDS011;61549;37.044;22.128;2023-01-28T06:14:09;2.67;;;2.17;;
73321;SDS011;61549;37.044;22.128;2023-01-28T06:16:36;4.65;;;3.20;;
73321;SDS011;61549;37.044;22.128;2023-01-28T06:19:02;8.45;;;3.22;;
73321;SDS011;61549;37.044;22.128;2023-01-28T06:21:28;2.75;;;2.25;;
73321;SDS011;61549;37.044;22.128;2023-01-28T06:23:54;2.95;;;1.20;;
73321;SDS011;61549;37.044;22.128;2023-01-28T06:26:19;2.38;;;1.17;;
73321;SDS011;61549;37.044;22.128;2023-01-28T06:28:45;1.48;;;1.20;;
73321;SDS011;61549;37.044;22.128;2023-01-28T06:31:11;1.33;;;1.10;;
73321;SDS011;61549;37.044;22.128;2023-01-28T06:33:37;1.77;;;1.45;;
73321;SDS011;61549;37.044;22.128;2023-01-28T06:36:03;1.38;;;1.20;;
73321;SDS011;61549;37.044;22.128;2023-01-28T06:38:30;4.32;;;2.40;;
73321;SDS011;61549;37.044;22.128;2023-01-28T06:40:57;5.28;;;3.50;;
73321;SDS011;61549;37.044;22.128;2023-01-28T06:43:23;5.68;;;3.50;;
73321;SDS011;61549;37.044;22.128;2023-01-28T06:45:52;2.67;;;2.30;;
73321;SDS011;61549;37.044;22.128;2023-01-28T06:48:18;4.13;;;2.80;;
73321;SDS011;61549;37.044;22.128;2023-01-28T06:50:48;3.95;;;2.50;;
73321;SDS011;61549;37.044;22.128;2023-01-28T06:53:14;3.95;;;1.92;;
73321;SDS011;61549;37.044;22.128;2023-01-28T06:58:10;4.95;;;2.60;;
73321;SDS011;61549;37.044;22.128;2023-01-28T07:00:36;3.78;;;2.80;;
73321;SDS011;61549;37.044;22.128;2023-01-28T07:03:02;3.78;;;2.92;;
73321;SDS011;61549;37.044;22.128;2023-01-28T07:05:28;3.45;;;2.72;;
73321;SDS011;61549;37.044;22.128;2023-01-28T07:07:54;3.65;;;2.80;;
73321;SDS011;61549;37.044;22.128;2023-01-28T07:10:20;4.90;;;3.22;;
73321;SDS011;61549;37.044;22.128;2023-01-28T07:12:46;6.53;;;3.35;;
73321;SDS011;61549;37.044;22.128;2023-01-28T07:15:12;4.30;;;2.80;;
73321;SDS011;61549;37.044;22.128;2023-01-28T07:17:39;3.00;;;2.45;;
73321;SDS011;61549;37.044;22.128;2023-01-28T07:20:06;2.38;;;1.90;;
73321;SDS011;61549;37.044;22.128;2023-01-28T07:22:54;3.78;;;2.20;;
73321;SDS011;61549;37.044;22.128;2023-01-28T07:25:21;3.25;;;2.03;;
73321;SDS011;61549;37.044;22.128;2023-01-28T07:27:52;2.28;;;1.70;;
73321;SDS011;61549;37.044;22.128;2023-01-28T07:30:27;2.67;;;2.00;;
73321;SDS011;61549;37.044;22.128;2023-01-28T07:32:54;3.05;;;2.05;;
73321;SDS011;61549;37.044;22.128;2023-01-28T07:38:45;2.95;;;2.33;;
73321;SDS011;61549;37.044;22.128;2023-01-28T07:41:10;1.83;;;1.40;;
73321;SDS011;61549;37.044;22.128;2023-01-28T07:43:36;1.10;;;1.00;;
73321;SDS011;61549;37.044;22.128;2023-01-28T07:46:02;1.90;;;1.17;;
73321;SDS011;61549;37.044;22.128;2023-01-28T07:48:28;1.25;;;0.82;;
73321;SDS011;61549;37.044;22.128;2023-01-28T07:50:57;0.70;;;0.70;;
73321;SDS011;61549;37.044;22.128;2023-01-28T07:53:23;0.70;;;0.70;;
73321;SDS011;61549;37.044;22.128;2023-01-28T07:55:49;0.60;;;0.60;;
73321;SDS011;61549;37.044;22.128;2023-01-28T08:00:43;5.13;;;3.97;;
73321;SDS011;61549;37.044;22.128;2023-01-28T08:03:11;5.05;;;4.53;;
73321;SDS011;61549;37.044;22.128;2023-01-28T08:05:44;7.15;;;5.30;;
73321;SDS011;61549;37.044;22.128;2023-01-28T08:08:12;5.10;;;4.20;;
73321;SDS011;61549;37.044;22.128;2023-01-28T08:10:39;5.10;;;3.53;;
73321;SDS011;61549;37.044;22.128;2023-01-28T08:13:05;4.55;;;3.60;;
73321;SDS011;61549;37.044;22.128;2023-01-28T08:15:31;4.80;;;3.95;;
73321;SDS011;61549;37.044;22.128;2023-01-28T08:17:58;3.40;;;3.10;;
73321;SDS011;61549;37.044;22.128;2023-01-28T08:20:25;10.38;;;8.07;;
73321;SDS011;61549;37.044;22.128;2023-01-28T08:22:52;5.10;;;4.05;;
73321;SDS011;61549;37.044;22.128;2023-01-28T08:25:29;1.98;;;1.58;;
73321;SDS011;61549;37.044;22.128;2023-01-28T08:27:54;2.60;;;1.30;;
73321;SDS011;61549;37.044;22.128;2023-01-28T08:30:20;1.30;;;1.00;;
73321;SDS011;61549;37.044;22.128;2023-01-28T08:32:46;1.50;;;0.90;;
73321;SDS011;61549;37.044;22.128;2023-01-28T08:35:12;2.17;;;1.20;;
73321;SDS011;61549;37.044;22.128;2023-01-28T08:37:40;1.55;;;1.20;;
73321;SDS011;61549;37.044;22.128;2023-01-28T08:40:06;2.00;;;1.50;;
73321;SDS011;61549;37.044;22.128;2023-01-28T08:42:32;2.53;;;1.90;;
73321;SDS011;61549;37.044;22.128;2023-01-28T08:44:58;2.50;;;1.50;;
73321;SDS011;61549;37.044;22.128;2023-01-28T08:47:36;1.63;;;1.33;;
73321;SDS011;61549;37.044;22.128;2023-01-28T08:50:16;3.25;;;2.50;;
73321;SDS011;61549;37.044;22.128;2023-01-28T08:52:45;3.53;;;2.53;;
73321;SDS011;61549;37.044;22.128;2023-01-28T08:55:13;4.85;;;3.55;;
73321;SDS011;61549;37.044;22.128;2023-01-28T08:57:40;2.42;;;1.73;;
73321;SDS011;61549;37.044;22.128;2023-01-28T09:00:06;2.75;;;1.92;;
73321;SDS011;61549;37.044;22.128;2023-01-28T09:02:35;2.08;;;1.65;;
73321;SDS011;61549;37.044;22.128;2023-01-28T09:05:01;2.03;;;1.33;;
73321;SDS011;61549;37.044;22.128;2023-01-28T09:07:28;1.20;;;0.98;;
73321;SDS011;61549;37.044;22.128;2023-01-28T09:09:55;2.20;;;1.30;;
73321;SDS011;61549;37.044;22.128;2023-01-28T09:15:43;1.20;;;1.10;;
73321;SDS011;61549;37.044;22.128;2023-01-28T09:18:09;1.77;;;1.10;;
73321;SDS011;61549;37.044;22.128;2023-01-28T09:20:35;6.45;;;5.15;;
73321;SDS011;61549;37.044;22.128;2023-01-28T09:23:01;8.43;;;6.03;;
73321;SDS011;61549;37.044;22.128;2023-01-28T09:25:27;5.20;;;4.07;;
73321;SDS011;61549;37.044;22.128;2023-01-28T09:27:53;4.38;;;3.47;;
73321;SDS011;61549;37.044;22.128;2023-01-28T09:30:19;4.40;;;3.08;;
73321;SDS011;61549;37.044;22.128;2023-01-28T09:32:48;4.88;;;2.67;;
73321;SDS011;61549;37.044;22.128;2023-01-28T09:35:18;3.80;;;2.47;;
73321;SDS011;61549;37.044;22.128;2023-01-28T09:37:46;4.32;;;2.50;;
73321;SDS011;61549;37.044;22.128;2023-01-28T09:40:54;4.18;;;2.83;;
73321;SDS011;61549;37.044;22.128;2023-01-28T09:43:25;4.32;;;3.30;;
73321;SDS011;61549;37.044;22.128;2023-01-28T09:46:09;3.55;;;2.47;;
73321;SDS011;61549;37.044;22.128;2023-01-28T09:48:43;2.78;;;2.53;;
73321;SDS011;61549;37.044;22.128;2023-01-28T09:54:04;5.90;;;3.60;;
73321;SDS011;61549;37.044;22.128;2023-01-28T09:56:39;6.57;;;4.38;;
73321;SDS011;61549;37.044;22.128;2023-01-28T09:59:17;7.82;;;4.65;;
73321;SDS011;61549;37.044;22.128;2023-01-28T10:10:11;5.47;;;4.43;;
73321;SDS011;61549;37.044;22.128;2023-01-28T10:13:00;9.68;;;6.38;;
73321;SDS011;61549;37.044;22.128;2023-01-28T10:18:34;6.47;;;4.68;;
73321;SDS011;61549;37.044;22.128;2023-01-28T10:21:53;5.88;;;4.80;;
73321;SDS011;61549;37.044;22.128;2023-01-28T10:24:40;6.55;;;4.78;;
73321;SDS011;61549;37.044;22.128;2023-01-28T10:29:49;5.07;;;4.32;;
73321;SDS011;61549;37.044;22.128;2023-01-28T10:32:20;10.25;;;6.68;;
73321;SDS011;61549;37.044;22.128;2023-01-28T10:34:50;6.75;;;3.50;;
73321;SDS011;61549;37.044;22.128;2023-01-28T10:37:17;4.05;;;3.42;;
73321;SDS011;61549;37.044;22.128;2023-01-28T10:39:56;5.80;;;4.47;;
73321;SDS011;61549;37.044;22.128;2023-01-28T10:42:27;4.93;;;4.22;;
73321;SDS011;61549;37.044;22.128;2023-01-28T10:45:29;6.40;;;5.03;;
73321;SDS011;61549;37.044;22.128;2023-01-28T10:48:01;6.43;;;5.30;;
73321;SDS011;61549;37.044;22.128;2023-01-28T10:50:54;6.28;;;4.30;;
73321;SDS011;61549;37.044;22.128;2023-01-28T10:53:40;4.75;;;3.83;;
73321;SDS011;61549;37.044;22.128;2023-01-28T10:56:07;6.55;;;4.20;;
73321;SDS011;61549;37.044;22.128;2023-01-28T10:58:45;4.90;;;4.35;;
73321;SDS011;61549;37.044;22.128;2023-01-28T11:01:20;5.55;;;4.45;;
73321;SDS011;61549;37.044;22.128;2023-01-28T11:03:53;6.53;;;4.80;;
73321;SDS011;61549;37.044;22.128;2023-01-28T11:06:25;6.13;;;5.07;;
73321;SDS011;61549;37.044;22.128;2023-01-28T11:08:52;8.32;;;6.88;;
73321;SDS011;61549;37.044;22.128;2023-01-28T11:11:22;5.00;;;4.45;;
73321;SDS011;61549;37.044;22.128;2023-01-28T11:13:51;6.28;;;4.95;;
73321;SDS011;61549;37.044;22.128;2023-01-28T11:16:18;6.53;;;3.70;;
73321;SDS011;61549;37.044;22.128;2023-01-28T11:18:51;5.90;;;4.47;;
73321;SDS011;61549;37.044;22.128;2023-01-28T11:21:25;4.97;;;3.95;;
73321;SDS011;61549;37.044;22.128;2023-01-28T11:23:58;3.30;;;2.70;;
73321;SDS011;61549;37.044;22.128;2023-01-28T11:26:31;4.47;;;3.50;;
73321;SDS011;61549;37.044;22.128;2023-01-28T11:31:28;2.80;;;2.50;;
73321;SDS011;61549;37.044;22.128;2023-01-28T11:34:03;2.60;;;2.40;;
73321;SDS011;61549;37.044;22.128;2023-01-28T11:36:31;2.53;;;2.10;;
73321;SDS011;61549;37.044;22.128;2023-01-28T11:41:50;3.17;;;2.38;;
73321;SDS011;61549;37.044;22.128;2023-01-28T11:46:52;3.65;;;2.60;;
73321;SDS011;61549;37.044;22.128;2023-01-28T12:03:27;3.70;;;3.05;;
73321;SDS011;61549;37.044;22.128;2023-01-28T12:06:11;3.72;;;3.13;;
73321;SDS011;61549;37.044;22.128;2023-01-28T12:14:26;5.25;;;4.13;;
73321;SDS011;61549;37.044;22.128;2023-01-28T12:20:17;3.58;;;3.28;;
73321;SDS011;61549;37.044;22.128;2023-01-28T12:28:15;3.97;;;3.40;;
73321;SDS011;61549;37.044;22.128;2023-01-28T12:33:31;5.45;;;3.80;;
73321;SDS011;61549;37.044;22.128;2023-01-28T12:36:39;5.30;;;3.70;;
73321;SDS011;61549;37.044;22.128;2023-01-28T12:48:12;4.75;;;3.95;;
73321;SDS011;61549;37.044;22.128;2023-01-28T12:51:02;5.95;;;5.00;;
73321;SDS011;61549;37.044;22.128;2023-01-28T12:56:16;6.85;;;5.57;;
73321;SDS011;61549;37.044;22.128;2023-01-28T12:58:56;6.97;;;5.65;;
73321;SDS011;61549;37.044;22.128;2023-01-28T13:01:27;5.50;;;4.60;;
73321;SDS011;61549;37.044;22.128;2023-01-28T13:06:52;5.70;;;4.80;;
73321;SDS011;61549;37.044;22.128;2023-01-28T13:09:21;11.48;;;7.07;;
73321;SDS011;61549;37.044;22.128;2023-01-28T13:11:50;13.13;;;8.90;;
73321;SDS011;61549;37.044;22.128;2023-01-28T13:14:22;9.82;;;7.50;;
73321;SDS011;61549;37.044;22.128;2023-01-28T13:17:12;5.32;;;4.30;;
73321;SDS011;61549;37.044;22.128;2023-01-28T13:19:57;7.28;;;5.90;;
73321;SDS011;61549;37.044;22.128;2023-01-28T13:25:19;6.68;;;5.18;;
73321;SDS011;61549;37.044;22.128;2023-01-28T13:27:55;7.63;;;5.57;;
73321;SDS011;61549;37.044;22.128;2023-01-28T13:30:30;6.05;;;5.00;;
73321;SDS011;61549;37.044;22.128;2023-01-28T13:36:01;7.22;;;5.97;;
73321;SDS011;61549;37.044;22.128;2023-01-28T13:38:48;10.02;;;5.63;;
73321;SDS011;61549;37.044;22.128;2023-01-28T13:41:35;7.10;;;5.85;;
73321;SDS011;61549;37.044;22.128;2023-01-28T13:46:50;7.55;;;4.93;;
73321;SDS011;61549;37.044;22.128;2023-01-28T13:49:18;6.00;;;4.80;;
73321;SDS011;61549;37.044;22.128;2023-01-28T13:52:24;6.50;;;4.85;;
73321;SDS011;61549;37.044;22.128;2023-01-28T14:11:32;6.00;;;4.75;;
73321;SDS011;61549;37.044;22.128;2023-01-28T14:14:43;8.75;;;6.60;;
73321;SDS011;61549;37.044;22.128;2023-01-28T14:17:20;6.50;;;5.53;;
73321;SDS011;61549;37.044;22.128;2023-01-28T14:19:49;6.90;;;6.10;;
73321;SDS011;61549;37.044;22.128;2023-01-28T14:22:20;11.13;;;5.78;;
73321;SDS011;61549;37.044;22.128;2023-01-28T14:24:46;6.95;;;6.00;;
73321;SDS011;61549;37.044;22.128;2023-01-28T14:27:23;8.50;;;6.38;;
73321;SDS011;61549;37.044;22.128;2023-01-28T14:30:17;8.98;;;6.30;;
73321;SDS011;61549;37.044;22.128;2023-01-28T14:32:48;10.50;;;8.48;;
73321;SDS011;61549;37.044;22.128;2023-01-28T14:35:32;12.88;;;9.57;;
73321;SDS011;61549;37.044;22.128;2023-01-28T14:38:05;8.45;;;6.88;;
73321;SDS011;61549;37.044;22.128;2023-01-28T14:40:34;12.05;;;9.43;;
73321;SDS011;61549;37.044;22.128;2023-01-28T14:43:04;14.82;;;9.90;;
73321;SDS011;61549;37.044;22.128;2023-01-28T14:45:43;16.08;;;12.60;;
73321;SDS011;61549;37.044;22.128;2023-01-28T14:59:52;10.75;;;7.55;;
73321;SDS011;61549;37.044;22.128;2023-01-28T15:06:21;13.15;;;10.35;;
73321;SDS011;61549;37.044;22.128;2023-01-28T15:09:04;13.43;;;9.25;;
73321;SDS011;61549;37.044;22.128;2023-01-28T15:11:32;12.82;;;8.70;;
73321;SDS011;61549;37.044;22.128;2023-01-28T15:14:02;19.08;;;13.98;;
73321;SDS011;61549;37.044;22.128;2023-01-28T15:16:28;12.13;;;9.23;;
73321;SDS011;61549;37.044;22.128;2023-01-28T15:18:56;12.27;;;9.15;;
73321;SDS011;61549;37.044;22.128;2023-01-28T15:21:25;73.53;;;42.13;;
73321;SDS011;61549;37.044;22.128;2023-01-28T15:23:56;53.20;;;32.47;;
73321;SDS011;61549;37.044;22.128;2023-01-28T15:26:27;13.00;;;8.85;;
73321;SDS011;61549;37.044;22.128;2023-01-28T15:28:55;14.30;;;10.60;;
73321;SDS011;61549;37.044;22.128;2023-01-28T15:31:32;11.98;;;9.73;;
73321;SDS011;61549;37.044;22.128;2023-01-28T15:34:00;15.55;;;11.65;;
73321;SDS011;61549;37.044;22.128;2023-01-28T15:36:39;12.00;;;10.68;;
73321;SDS011;61549;37.044;22.128;2023-01-28T15:39:12;14.40;;;11.23;;
73321;SDS011;61549;37.044;22.128;2023-01-28T15:41:44;15.93;;;12.65;;
73321;SDS011;61549;37.044;22.128;2023-01-28T15:47:01;18.70;;;14.23;;
73321;SDS011;61549;37.044;22.128;2023-01-28T15:49:40;15.70;;;12.20;;
73321;SDS011;61549;37.044;22.128;2023-01-28T15:52:08;17.20;;;12.80;;
73321;SDS011;61549;37.044;22.128;2023-01-28T15:54:38;17.10;;;13.15;;
73321;SDS011;61549;37.044;22.128;2023-01-28T15:57:14;18.48;;;13.65;;
73321;SDS011;61549;37.044;22.128;2023-01-28T15:59:42;18.35;;;14.38;;
73321;SDS011;61549;37.044;22.128;2023-01-28T16:02:14;18.30;;;13.25;;
73321;SDS011;61549;37.044;22.128;2023-01-28T16:04:58;16.00;;;11.80;;
73321;SDS011;61549;37.044;22.128;2023-01-28T16:07:26;15.38;;;11.68;;
73321;SDS011;61549;37.044;22.128;2023-01-28T16:09:55;16.10;;;12.02;;
73321;SDS011;61549;37.044;22.128;2023-01-28T16:12:23;13.63;;;11.20;;
73321;SDS011;61549;37.044;22.128;2023-01-28T16:14:54;15.98;;;12.65;;
73321;SDS011;61549;37.044;22.128;2023-01-28T16:17:28;15.27;;;11.77;;
73321;SDS011;61549;37.044;22.128;2023-01-28T16:20:04;17.17;;;13.32;;
73321;SDS011;61549;37.044;22.128;2023-01-28T16:24:59;18.15;;;13.38;;
73321;SDS011;61549;37.044;22.128;2023-01-28T16:27:29;16.58;;;12.07;;
73321;SDS011;61549;37.044;22.128;2023-01-28T16:29:59;15.65;;;11.60;;
73321;SDS011;61549;37.044;22.128;2023-01-28T16:34:57;21.55;;;14.07;;
73321;SDS011;61549;37.044;22.128;2023-01-28T16:37:23;20.35;;;13.15;;
73321;SDS011;61549;37.044;22.128;2023-01-28T16:39:49;18.50;;;11.43;;
73321;SDS011;61549;37.044;22.128;2023-01-28T16:42:15;41.40;;;28.77;;
73321;SDS011;61549;37.044;22.128;2023-01-28T16:44:41;14.40;;;9.63;;
73321;SDS011;61549;37.044;22.128;2023-01-28T16:47:07;14.57;;;8.30;;
73321;SDS011;61549;37.044;22.128;2023-01-28T16:49:33;10.95;;;7.90;;
73321;SDS011;61549;37.044;22.128;2023-01-28T16:51:59;12.68;;;8.98;;
73321;SDS011;61549;37.044;22.128;2023-01-28T16:54:26;13.65;;;8.70;;
73321;SDS011;61549;37.044;22.128;2023-01-28T16:56:59;15.43;;;11.05;;
73321;SDS011;61549;37.044;22.128;2023-01-28T16:59:25;15.57;;;11.32;;
73321;SDS011;61549;37.044;22.128;2023-01-28T17:01:51;15.85;;;12.15;;
73321;SDS011;61549;37.044;22.128;2023-01-28T17:04:17;18.65;;;13.73;;
73321;SDS011;61549;37.044;22.128;2023-01-28T17:06:43;20.80;;;16.63;;
73321;SDS011;61549;37.044;22.128;2023-01-28T17:09:13;21.95;;;16.77;;
73321;SDS011;61549;37.044;22.128;2023-01-28T17:11:39;27.15;;;19.27;;
73321;SDS011;61549;37.044;22.128;2023-01-28T17:14:05;25.38;;;18.73;;
73321;SDS011;61549;37.044;22.128;2023-01-28T17:16:31;24.60;;;18.10;;
73321;SDS011;61549;37.044;22.128;2023-01-28T17:18:58;18.30;;;14.05;;
73321;SDS011;61549;37.044;22.128;2023-01-28T17:21:25;13.57;;;10.68;;
73321;SDS011;61549;37.044;22.128;2023-01-28T17:23:50;11.15;;;8.80;;
73321;SDS011;61549;37.044;22.128;2023-01-28T17:26:16;10.85;;;7.80;;
73321;SDS011;61549;37.044;22.128;2023-01-28T17:28:42;12.90;;;9.45;;
73321;SDS011;61549;37.044;22.128;2023-01-28T17:31:09;17.80;;;13.05;;
73321;SDS011;61549;37.044;22.128;2023-01-28T17:33:37;23.55;;;13.30;;